SCO17BC EGPA-EGPN

Flight info

Callsign SCO17BC
Flight time 0h 39m
Altitude 22000
Route WIK DCT ASNUD
Aircraft AT46/M-SDFGIRY/S

Departure

Time 2026-04-21 14:45
Airport Kirkwall Airport (EGPA)

Arrival

Time 2026-04-21 15:24
Airport Dundee Airport (EGPN)
Time Latitude Longitude Altitude Speed Heading
2026-04-21 14:35 58.95401 -2.90059 56 ft 0 kts 177°
2026-04-21 14:36 58.95416 -2.90060 56 ft 3 kts 177°
2026-04-21 14:37 58.95435 -2.90062 56 ft 3 kts 177°
2026-04-21 14:37 58.95453 -2.90063 54 ft 3 kts 177°
2026-04-21 14:37 58.95470 -2.90065 57 ft 0 kts 177°
2026-04-21 14:41 58.95461 -2.90065 57 ft 3 kts 187°
2026-04-21 14:41 58.95439 -2.90103 55 ft 4 kts 250°
2026-04-21 14:41 58.95440 -2.90185 57 ft 6 kts 290°
2026-04-21 14:42 58.95464 -2.90252 54 ft 6 kts 313°
2026-04-21 14:42 58.95497 -2.90318 54 ft 8 kts 311°
2026-04-21 14:42 58.95541 -2.90418 54 ft 12 kts 307°
2026-04-21 14:42 58.95564 -2.90592 49 ft 16 kts 276°
2026-04-21 14:43 58.95577 -2.90814 47 ft 17 kts 277°
2026-04-21 14:43 58.95536 -2.91017 47 ft 17 kts 251°
2026-04-21 14:43 58.95582 -2.91168 46 ft 13 kts 337°
2026-04-21 14:43 58.95656 -2.91226 45 ft 12 kts 339°
2026-04-21 14:44 58.95742 -2.91287 42 ft 14 kts 351°
2026-04-21 14:44 58.95774 -2.91204 44 ft 8 kts 86°
2026-04-21 14:44 58.95788 -2.90611 45 ft 83 kts 86°
2026-04-21 14:44 58.95817 -2.89148 227 ft 120 kts 84°
2026-04-21 14:45 58.95915 -2.87618 1088 ft 114 kts 80°
2026-04-21 14:45 58.95938 -2.85779 1447 ft 160 kts 87°
2026-04-21 14:45 58.95955 -2.83477 1878 ft 183 kts 94°
2026-04-21 14:45 58.95285 -2.81226 2430 ft 206 kts 139°
2026-04-21 14:46 58.93908 -2.80391 3084 ft 221 kts 179°
2026-04-21 14:46 58.92430 -2.81436 3746 ft 231 kts 217°
2026-04-21 14:46 58.91240 -2.83501 4394 ft 235 kts 221°
2026-04-21 14:46 58.89930 -2.85385 5049 ft 235 kts 201°
2026-04-21 14:47 58.88348 -2.85686 5696 ft 227 kts 168°
2026-04-21 14:47 58.86787 -2.85234 6339 ft 228 kts 170°
2026-04-21 14:47 58.85201 -2.84950 7000 ft 229 kts 173°
2026-04-21 14:47 58.83604 -2.84879 7620 ft 231 kts 179°
2026-04-21 14:48 58.81985 -2.85082 8122 ft 237 kts 184°
2026-04-21 14:48 58.80336 -2.85568 8643 ft 242 kts 190°
2026-04-21 14:48 58.78697 -2.86414 9157 ft 246 kts 197°
2026-04-21 14:48 58.77079 -2.87548 9698 ft 249 kts 200°
2026-04-21 14:49 58.75469 -2.88795 10231 ft 251 kts 201°
2026-04-21 14:49 58.73847 -2.90038 10750 ft 252 kts 201°
2026-04-21 14:49 58.72211 -2.91267 11241 ft 253 kts 200°
2026-04-21 14:49 58.70566 -2.92480 11742 ft 253 kts 200°
2026-04-21 14:50 58.69472 -2.93269 12069 ft 254 kts 200°
2026-04-21 14:50 58.67256 -2.94849 12761 ft 254 kts 199°
2026-04-21 14:50 58.65598 -2.96012 13284 ft 254 kts 199°
2026-04-21 14:50 58.63939 -2.97173 13819 ft 254 kts 199°
2026-04-21 14:51 58.62278 -2.98321 14321 ft 255 kts 199°
2026-04-21 14:51 58.60593 -2.99513 14695 ft 260 kts 199°
2026-04-21 14:51 58.58888 -3.00728 15061 ft 263 kts 199°
2026-04-21 14:51 58.57160 -3.01959 15433 ft 266 kts 199°
2026-04-21 14:52 58.56011 -3.02778 15685 ft 267 kts 199°
2026-04-21 14:52 58.54267 -3.04018 16057 ft 268 kts 199°
2026-04-21 14:52 58.52521 -3.05257 16435 ft 268 kts 199°
2026-04-21 14:52 58.50770 -3.06502 16832 ft 268 kts 199°
2026-04-21 14:53 58.49022 -3.07741 17234 ft 268 kts 199°
2026-04-21 14:53 58.47276 -3.08974 17633 ft 267 kts 199°
2026-04-21 14:53 58.45512 -3.10067 18036 ft 265 kts 188°
2026-04-21 14:53 58.43689 -3.10232 18447 ft 261 kts 176°
2026-04-21 14:54 58.41876 -3.10057 18856 ft 260 kts 175°
2026-04-21 14:54 58.40073 -3.09864 19226 ft 259 kts 175°
2026-04-21 14:54 58.38275 -3.09741 19571 ft 259 kts 176°
2026-04-21 14:54 58.36462 -3.09689 19857 ft 262 kts 178°
2026-04-21 14:55 58.34639 -3.09659 20156 ft 263 kts 178°
2026-04-21 14:55 58.32809 -3.09616 20458 ft 263 kts 178°
2026-04-21 14:55 58.30980 -3.09568 20761 ft 263 kts 178°
2026-04-21 14:55 58.29149 -3.09521 21071 ft 263 kts 178°
2026-04-21 14:56 58.27322 -3.09471 21384 ft 263 kts 178°
2026-04-21 14:56 58.25498 -3.09424 21699 ft 262 kts 178°
2026-04-21 14:56 58.23662 -3.09376 21869 ft 266 kts 178°
2026-04-21 14:56 58.21777 -3.09325 21931 ft 277 kts 178°
2026-04-21 14:57 58.19800 -3.09277 21957 ft 290 kts 178°
2026-04-21 14:57 58.17742 -3.09222 21974 ft 301 kts 178°
2026-04-21 14:57 58.15617 -3.09167 21978 ft 309 kts 178°
2026-04-21 14:57 58.13443 -3.09112 21977 ft 315 kts 178°
2026-04-21 14:58 58.11230 -3.09056 21978 ft 320 kts 178°
2026-04-21 14:58 58.08988 -3.08995 21975 ft 324 kts 178°
2026-04-21 14:58 58.06725 -3.08944 21977 ft 327 kts 178°
2026-04-21 14:58 58.04444 -3.08889 21978 ft 328 kts 178°
2026-04-21 14:59 58.02184 -3.08831 21976 ft 330 kts 177°
2026-04-21 14:59 57.99888 -3.08769 21972 ft 331 kts 177°
2026-04-21 14:59 57.97613 -3.08715 22156 ft 319 kts 177°
2026-04-21 14:59 57.95457 -3.08674 22476 ft 302 kts 177°
2026-04-21 15:00 57.93374 -3.08647 22555 ft 297 kts 178°
2026-04-21 15:00 57.91320 -3.08610 22578 ft 294 kts 177°
2026-04-21 15:00 57.89250 -3.08567 22599 ft 293 kts 177°
2026-04-21 15:00 57.87235 -3.08530 22606 ft 294 kts 177°
2026-04-21 15:01 57.85189 -3.08487 22615 ft 294 kts 176°
2026-04-21 15:01 57.83142 -3.08437 22623 ft 294 kts 176°
2026-04-21 15:01 57.81092 -3.08385 22619 ft 295 kts 176°
2026-04-21 15:01 57.79039 -3.08334 22618 ft 295 kts 176°
2026-04-21 15:02 57.76987 -3.08280 22615 ft 295 kts 176°
2026-04-21 15:02 57.74931 -3.08228 22609 ft 295 kts 176°
2026-04-21 15:02 57.72876 -3.08177 22614 ft 295 kts 176°
2026-04-21 15:02 57.70823 -3.08123 22612 ft 295 kts 176°
2026-04-21 15:03 57.68769 -3.08070 22615 ft 295 kts 176°
2026-04-21 15:03 57.66714 -3.08018 22615 ft 295 kts 176°
2026-04-21 15:03 57.64658 -3.07966 22616 ft 295 kts 176°
2026-04-21 15:03 57.62604 -3.07908 22610 ft 295 kts 176°
2026-04-21 15:04 57.60552 -3.07853 22612 ft 295 kts 176°
2026-04-21 15:04 57.58500 -3.07808 22611 ft 295 kts 176°
2026-04-21 15:04 57.56449 -3.07758 22610 ft 295 kts 176°
2026-04-21 15:04 57.54397 -3.07706 22608 ft 295 kts 176°
2026-04-21 15:05 57.52345 -3.07653 22610 ft 295 kts 176°
2026-04-21 15:05 57.48234 -3.07551 22605 ft 296 kts 176°
2026-04-21 15:05 57.46178 -3.07499 22601 ft 296 kts 175°
2026-04-21 15:06 57.44120 -3.07446 22596 ft 296 kts 176°
2026-04-21 15:06 57.42066 -3.07395 22592 ft 295 kts 176°
2026-04-21 15:06 57.40000 -3.07341 22401 ft 301 kts 175°
2026-04-21 15:06 57.37896 -3.07291 21873 ft 303 kts 176°
2026-04-21 15:07 57.35800 -3.07240 21342 ft 298 kts 175°
2026-04-21 15:07 57.33743 -3.07188 20824 ft 294 kts 175°
2026-04-21 15:07 57.31701 -3.07135 20322 ft 293 kts 176°
2026-04-21 15:07 57.29671 -3.07084 19826 ft 291 kts 175°
2026-04-21 15:08 57.27681 -3.07035 19339 ft 289 kts 175°
2026-04-21 15:08 57.25672 -3.06983 18847 ft 287 kts 175°
2026-04-21 15:08 57.23683 -3.06933 18277 ft 285 kts 175°
2026-04-21 15:08 57.21702 -3.06885 17747 ft 284 kts 175°
2026-04-21 15:09 57.19736 -3.06834 17203 ft 281 kts 175°
2026-04-21 15:09 57.17785 -3.06782 16672 ft 280 kts 175°
2026-04-21 15:09 57.15846 -3.06736 16150 ft 278 kts 175°
2026-04-21 15:09 57.13918 -3.06691 15661 ft 277 kts 175°
2026-04-21 15:10 57.11994 -3.06646 15159 ft 276 kts 175°
2026-04-21 15:10 57.10081 -3.06589 14655 ft 275 kts 175°
2026-04-21 15:10 57.08175 -3.06538 14153 ft 273 kts 175°
2026-04-21 15:10 57.06276 -3.06492 13613 ft 272 kts 175°
2026-04-21 15:11 57.04385 -3.06453 13085 ft 271 kts 175°
2026-04-21 15:11 57.02506 -3.06409 12553 ft 270 kts 175°
2026-04-21 15:11 57.00637 -3.06362 12042 ft 268 kts 175°
2026-04-21 15:11 56.98779 -3.06307 11526 ft 266 kts 175°
2026-04-21 15:12 56.96933 -3.06252 11022 ft 264 kts 175°
2026-04-21 15:12 56.95099 -3.06197 10539 ft 263 kts 175°
2026-04-21 15:12 56.93280 -3.06141 10011 ft 261 kts 175°
2026-04-21 15:12 56.91470 -3.06091 9478 ft 260 kts 175°
2026-04-21 15:13 56.89664 -3.06045 8948 ft 259 kts 175°
2026-04-21 15:13 56.87870 -3.06004 8439 ft 257 kts 175°
2026-04-21 15:13 56.86085 -3.05969 7928 ft 257 kts 175°
2026-04-21 15:13 56.84302 -3.05927 7434 ft 255 kts 175°
2026-04-21 15:14 56.82530 -3.05877 6928 ft 254 kts 174°
2026-04-21 15:14 56.80760 -3.05832 6406 ft 254 kts 174°
2026-04-21 15:14 56.78997 -3.05794 5900 ft 253 kts 174°
2026-04-21 15:14 56.77241 -3.05757 5358 ft 252 kts 174°
2026-04-21 15:15 56.75486 -3.05718 4834 ft 251 kts 174°
2026-04-21 15:15 56.73739 -3.05669 4319 ft 251 kts 174°
2026-04-21 15:15 56.71993 -3.05611 3797 ft 251 kts 174°
2026-04-21 15:15 56.70252 -3.05557 3261 ft 250 kts 175°
2026-04-21 15:16 56.68587 -3.06050 2941 ft 246 kts 198°
2026-04-21 15:16 56.67082 -3.07415 2782 ft 237 kts 205°
2026-04-21 15:16 56.65658 -3.08857 2722 ft 232 kts 205°
2026-04-21 15:16 56.64261 -3.10279 2685 ft 228 kts 205°
2026-04-21 15:17 56.62876 -3.11644 2683 ft 225 kts 204°
2026-04-21 15:17 56.61491 -3.12943 2673 ft 223 kts 204°
2026-04-21 15:17 56.60115 -3.14222 2650 ft 221 kts 203°
2026-04-21 15:17 56.58746 -3.15481 2675 ft 220 kts 203°
2026-04-21 15:18 56.57378 -3.16720 2658 ft 219 kts 203°
2026-04-21 15:18 56.56017 -3.17958 2658 ft 218 kts 203°
2026-04-21 15:18 56.54666 -3.19186 2664 ft 218 kts 202°
2026-04-21 15:18 56.53273 -3.20445 2380 ft 229 kts 202°
2026-04-21 15:19 56.51840 -3.21751 2238 ft 230 kts 203°
2026-04-21 15:19 56.50410 -3.23065 2179 ft 231 kts 203°
2026-04-21 15:19 56.48996 -3.24408 2136 ft 229 kts 204°
2026-04-21 15:19 56.47590 -3.25731 2160 ft 227 kts 204°
2026-04-21 15:20 56.46190 -3.26930 2131 ft 214 kts 192°
2026-04-21 15:20 56.44829 -3.26745 2179 ft 187 kts 150°
2026-04-21 15:20 56.44037 -3.25144 2204 ft 167 kts 105°
2026-04-21 15:20 56.44153 -3.23170 2209 ft 157 kts 72°
2026-04-21 15:21 56.44488 -3.21323 2214 ft 153 kts 73°
2026-04-21 15:21 56.44794 -3.19493 2215 ft 151 kts 73°
2026-04-21 15:21 56.45060 -3.17580 1733 ft 161 kts 80°
2026-04-21 15:21 56.45214 -3.15728 1427 ft 139 kts 83°
2026-04-21 15:22 56.45320 -3.14048 1197 ft 130 kts 85°
2026-04-21 15:22 56.45323 -3.12500 1009 ft 115 kts 92°
2026-04-21 15:22 56.45297 -3.11189 866 ft 99 kts 93°
2026-04-21 15:22 56.45277 -3.09933 717 ft 100 kts 91°
2026-04-21 15:23 56.45270 -3.08687 574 ft 99 kts 91°
2026-04-21 15:23 56.45274 -3.07433 437 ft 100 kts 91°
2026-04-21 15:23 56.45266 -3.06170 311 ft 101 kts 92°
2026-04-21 15:23 56.45250 -3.04902 177 ft 101 kts 91°
2026-04-21 15:24 56.45250 -3.03661 50 ft 96 kts 92°
2026-04-21 15:24 56.45243 -3.02520 17 ft 86 kts 92°
2026-04-21 15:24 56.45250 -3.01916 25 ft 18 kts 47°
2026-04-21 15:24 56.45282 -3.01869 23 ft 0 kts 37°
2026-04-21 15:25 56.45298 -3.01846 24 ft 10 kts 38°
2026-04-21 15:25 56.45322 -3.01738 22 ft 11 kts 91°
2026-04-21 15:25 56.45323 -3.01610 21 ft 4 kts 67°
2026-04-21 15:25 56.45362 -3.01573 20 ft 4 kts 38°
2026-04-21 15:26 56.45364 -3.01570 20 ft 0 kts 39°